Time;durP1;ratioP1;P1;durP2;ratioP2;P2;SDS_P1;SDS_P2;PMS_P1;PMS_P2;Temp;Humidity;BMP_temperature;BMP_pressure;BME280_temperature;BME280_humidity;BME280_pressure;Samples;Min_cycle;Max_cycle;Signal;HPM_P1;HPM_P2
2023/10/27 00:00:50;;;;;;;16.52;9.80;;;9.70;99.90;;;;;;5046300;28;20054;-84
2023/10/27 00:03:16;;;;;;;17.17;10.85;;;9.70;99.90;;;;;;5052274;28;20388;-84
2023/10/27 00:05:43;;;;;;;19.40;10.30;;;9.70;99.90;;;;;;5055745;28;20054;-84
2023/10/27 00:08:10;;;;;;;17.05;10.10;;;9.70;99.90;;;;;;5050600;28;20041;-84
2023/10/27 00:10:37;;;;;;;18.23;10.30;;;10.10;99.90;;;;;;5042972;28;20037;-84
2023/10/27 00:13:03;;;;;;;18.50;10.10;;;9.70;99.90;;;;;;5038180;28;20079;-84
2023/10/27 00:15:30;;;;;;;20.58;10.73;;;9.70;99.90;;;;;;5042340;28;20041;-84
2023/10/27 00:17:58;;;;;;;20.95;11.63;;;9.70;99.90;;;;;;5050697;28;20111;-84
2023/10/27 00:20:25;;;;;;;18.60;11.10;;;10.00;99.90;;;;;;5052030;28;20048;-84
2023/10/27 00:22:51;;;;;;;17.00;10.13;;;9.70;99.90;;;;;;5039685;28;20041;-84
2023/10/27 00:25:18;;;;;;;21.25;11.50;;;9.80;99.90;;;;;;5040989;28;20099;-84
2023/10/27 00:27:45;;;;;;;19.88;11.38;;;9.80;99.90;;;;;;5043110;28;20049;-84
2023/10/27 00:30:12;;;;;;;22.25;11.73;;;9.80;99.90;;;;;;5061620;28;20411;-84
2023/10/27 00:32:39;;;;;;;20.13;11.38;;;9.80;99.90;;;;;;5044871;28;20038;-84
2023/10/27 00:35:06;;;;;;;21.02;12.73;;;10.20;99.90;;;;;;5048372;28;20372;-84
2023/10/27 00:37:36;;;;;;;22.65;11.60;;;9.80;99.90;;;;;;5051958;28;20099;-84
2023/10/27 00:40:04;;;;;;;19.02;11.50;;;9.80;99.90;;;;;;5040974;28;20044;-84
2023/10/27 00:42:30;;;;;;;19.08;11.20;;;9.80;99.90;;;;;;5059141;28;20518;-84
2023/10/27 00:44:57;;;;;;;24.35;12.40;;;10.00;99.90;;;;;;5050012;28;20038;-84
2023/10/27 00:47:24;;;;;;;18.63;11.82;;;9.70;99.90;;;;;;5040776;28;20045;-84
2023/10/27 00:49:54;;;;;;;22.77;10.88;;;9.90;99.90;;;;;;5052275;28;20052;-84
2023/10/27 00:52:24;;;;;;;19.20;10.77;;;9.80;99.90;;;;;;5051302;28;20033;-84
2023/10/27 00:54:51;;;;;;;18.10;10.88;;;9.80;99.90;;;;;;5054705;28;20038;-85
2023/10/27 00:57:18;;;;;;;16.98;10.23;;;10.10;99.90;;;;;;5067657;28;20462;-85
2023/10/27 00:59:46;;;;;;;17.85;9.98;;;9.80;99.90;;;;;;5038132;28;20087;-85
2023/10/27 01:02:16;;;;;;;17.45;10.20;;;9.80;99.90;;;;;;5060034;28;20107;-84
2023/10/27 01:04:43;;;;;;;15.50;9.90;;;9.80;99.90;;;;;;5051182;28;20045;-84
2023/10/27 01:07:09;;;;;;;17.17;9.90;;;9.80;99.90;;;;;;5054339;28;20060;-85
2023/10/27 01:09:36;;;;;;;15.93;9.30;;;9.80;99.90;;;;;;5065688;28;20048;-84
2023/10/27 01:12:03;;;;;;;16.70;10.57;;;9.70;99.90;;;;;;5042277;28;20127;-84
2023/10/27 01:14:30;;;;;;;19.05;9.82;;;9.80;99.90;;;;;;5050976;28;20052;-84
2023/10/27 01:16:57;;;;;;;17.27;9.80;;;10.00;99.90;;;;;;5052245;28;20036;-84
2023/10/27 01:19:23;;;;;;;17.42;10.52;;;9.70;99.90;;;;;;5048284;28;20037;-84
2023/10/27 01:21:50;;;;;;;17.00;10.20;;;9.70;99.90;;;;;;5050739;28;20033;-84
2023/10/27 01:24:17;;;;;;;17.60;10.23;;;9.70;99.90;;;;;;5050309;28;20179;-84
2023/10/27 01:26:44;;;;;;;17.27;10.32;;;9.70;99.90;;;;;;5067107;28;20033;-84
2023/10/27 01:29:11;;;;;;;15.90;10.02;;;10.10;99.90;;;;;;5037815;28;20053;-85
2023/10/27 01:31:38;;;;;;;18.30;10.60;;;9.90;99.90;;;;;;5039023;28;20441;-84
2023/10/27 01:34:04;;;;;;;20.10;10.38;;;9.70;99.90;;;;;;5046592;28;20080;-85
2023/10/27 01:36:31;;;;;;;19.08;10.93;;;10.10;99.90;;;;;;5031131;28;20092;-84
2023/10/27 01:38:58;;;;;;;17.25;10.27;;;9.70;99.90;;;;;;5061586;28;20053;-84
2023/10/27 01:41:27;;;;;;;17.35;10.55;;;9.70;99.90;;;;;;5043776;28;20041;-84
2023/10/27 01:43:54;;;;;;;14.73;9.55;;;9.70;99.90;;;;;;5051936;28;20037;-84
2023/10/27 01:46:20;;;;;;;18.58;10.52;;;9.70;99.90;;;;;;5066152;28;20518;-84
2023/10/27 01:48:47;;;;;;;19.13;10.70;;;9.80;99.90;;;;;;5050792;28;20037;-84
2023/10/27 01:51:14;;;;;;;17.45;10.65;;;9.70;99.90;;;;;;5037388;28;20400;-84
2023/10/27 01:53:41;;;;;;;18.45;10.70;;;10.00;99.90;;;;;;5049990;28;20059;-84
2023/10/27 01:56:08;;;;;;;17.52;10.77;;;9.70;99.90;;;;;;5039822;28;20537;-84
2023/10/27 01:58:34;;;;;;;16.00;10.43;;;9.80;99.90;;;;;;5049927;28;20041;-84
2023/10/27 02:01:01;;;;;;;17.67;10.50;;;9.70;99.90;;;;;;5050631;28;20080;-84
2023/10/27 02:03:27;;;;;;;15.88;10.25;;;9.80;99.90;;;;;;5053715;28;20486;-84
2023/10/27 02:05:54;;;;;;;21.98;11.32;;;9.80;99.90;;;;;;5050812;28;20042;-83
2023/10/27 02:08:21;;;;;;;16.17;9.93;;;9.70;99.90;;;;;;5055067;28;20046;-84
2023/10/27 02:10:47;;;;;;;20.35;10.60;;;9.70;99.90;;;;;;5034098;28;20041;-84
2023/10/27 02:13:14;;;;;;;17.35;11.00;;;9.70;99.90;;;;;;5067648;28;20048;-84
2023/10/27 02:15:42;;;;;;;17.85;10.52;;;9.70;99.90;;;;;;5053255;28;20044;-84
2023/10/27 02:18:08;;;;;;;23.48;11.30;;;10.00;99.90;;;;;;5040409;28;20044;-84
2023/10/27 02:20:35;;;;;;;18.42;10.73;;;9.70;99.90;;;;;;5069875;28;20041;-84
2023/10/27 02:23:02;;;;;;;20.02;12.30;;;9.70;99.90;;;;;;5052910;28;20045;-84
2023/10/27 02:25:28;;;;;;;19.50;11.20;;;10.00;99.90;;;;;;5069590;28;20037;-84
2023/10/27 02:27:55;;;;;;;18.15;11.15;;;10.30;99.90;;;;;;5045622;28;20041;-84
2023/10/27 02:30:22;;;;;;;18.63;11.30;;;9.70;99.90;;;;;;5044339;28;20040;-85
2023/10/27 02:32:48;;;;;;;18.05;10.95;;;10.10;99.90;;;;;;5045035;28;20033;-84
2023/10/27 02:35:15;;;;;;;17.77;11.40;;;9.70;99.90;;;;;;5046399;28;20033;-84
2023/10/27 02:37:41;;;;;;;18.40;11.70;;;9.70;99.90;;;;;;5052570;28;20532;-84
2023/10/27 02:40:08;;;;;;;17.63;10.65;;;9.80;99.90;;;;;;5052953;28;20045;-84
2023/10/27 02:42:37;;;;;;;18.30;10.45;;;9.70;99.90;;;;;;5053114;28;20499;-85
2023/10/27 02:45:05;;;;;;;17.63;11.70;;;9.90;99.90;;;;;;5039755;28;20070;-84
2023/10/27 02:47:32;;;;;;;21.05;11.70;;;9.70;99.90;;;;;;5069628;28;20045;-84
2023/10/27 02:49:59;;;;;;;18.77;11.02;;;9.70;99.90;;;;;;5039725;28;20033;-83
2023/10/27 02:52:26;;;;;;;17.63;10.70;;;9.70;99.90;;;;;;5058376;28;20896;-84
2023/10/27 02:54:52;;;;;;;19.27;11.75;;;9.90;99.90;;;;;;5033337;28;20487;-84
2023/10/27 02:57:19;;;;;;;21.40;11.07;;;9.80;99.90;;;;;;5060530;28;20072;-84
2023/10/27 02:59:46;;;;;;;22.23;11.90;;;10.00;99.90;;;;;;5055248;28;20080;-84
2023/10/27 03:02:12;;;;;;;16.45;10.77;;;9.70;99.90;;;;;;5048521;28;20045;-84
2023/10/27 03:04:39;;;;;;;18.40;11.63;;;9.70;99.90;;;;;;5063735;28;20053;-84
2023/10/27 03:07:06;;;;;;;19.60;11.15;;;9.80;99.90;;;;;;5045923;28;20128;-84
2023/10/27 03:09:32;;;;;;;17.40;10.85;;;9.70;99.90;;;;;;5041716;28;20512;-84
2023/10/27 03:11:59;;;;;;;19.08;11.27;;;9.70;99.90;;;;;;5057601;28;20041;-84
2023/10/27 03:14:25;;;;;;;16.20;10.93;;;9.70;99.90;;;;;;5053419;28;20033;-84
2023/10/27 03:16:52;;;;;;;17.38;10.85;;;9.70;99.90;;;;;;5054229;28;21427;-84
2023/10/27 03:19:22;;;;;;;17.42;10.27;;;9.70;99.90;;;;;;5053057;28;20048;-84
2023/10/27 03:21:51;;;;;;;16.17;10.32;;;9.70;99.90;;;;;;5053208;28;20037;-84
2023/10/27 03:24:17;;;;;;;17.75;11.13;;;9.70;99.90;;;;;;5052826;28;20052;-84
2023/10/27 03:26:44;;;;;;;17.48;10.70;;;10.00;99.90;;;;;;5053055;28;20128;-84
2023/10/27 03:29:10;;;;;;;18.88;11.20;;;9.70;99.90;;;;;;5043459;28;20132;-84
2023/10/27 03:31:37;;;;;;;20.40;11.02;;;9.70;99.90;;;;;;5053220;28;20040;-84
2023/10/27 03:34:04;;;;;;;21.45;11.13;;;9.70;99.90;;;;;;5051327;28;20543;-84
2023/10/27 03:36:31;;;;;;;20.77;11.60;;;9.70;99.90;;;;;;5045141;28;20491;-84
2023/10/27 03:38:57;;;;;;;20.30;11.43;;;9.60;99.90;;;;;;5057430;28;20049;-84
2023/10/27 03:41:24;;;;;;;18.23;11.00;;;9.60;99.90;;;;;;5052711;28;20407;-84
2023/10/27 03:43:50;;;;;;;18.33;11.82;;;9.70;99.90;;;;;;5053119;28;20551;-84
2023/10/27 03:46:17;;;;;;;19.33;11.48;;;9.60;99.90;;;;;;5039805;28;20104;-84
2023/10/27 03:48:44;;;;;;;18.20;10.88;;;9.60;99.90;;;;;;5068511;28;20403;-84
2023/10/27 03:51:11;;;;;;;20.48;10.85;;;9.60;99.90;;;;;;5072515;28;20106;-84
2023/10/27 03:53:38;;;;;;;22.50;11.70;;;10.10;99.90;;;;;;5055377;28;20039;-84
2023/10/27 03:56:04;;;;;;;18.88;11.95;;;9.70;99.90;;;;;;5055275;28;20072;-84
2023/10/27 03:58:31;;;;;;;20.27;12.13;;;9.60;99.90;;;;;;5056773;28;20444;-84
2023/10/27 04:00:58;;;;;;;21.65;12.02;;;9.70;99.90;;;;;;5068612;28;20148;-84
2023/10/27 04:03:24;;;;;;;17.20;11.57;;;9.70;99.90;;;;;;5046130;28;20470;-84
2023/10/27 04:05:51;;;;;;;21.00;12.57;;;9.70;99.90;;;;;;5039154;28;20037;-85
2023/10/27 04:08:18;;;;;;;19.98;11.23;;;9.70;99.90;;;;;;5041055;28;20529;-84
2023/10/27 04:10:44;;;;;;;21.35;11.52;;;9.60;99.90;;;;;;5043132;28;20492;-84
2023/10/27 04:13:12;;;;;;;18.90;10.77;;;9.90;99.90;;;;;;5039258;28;20046;-84
2023/10/27 04:15:38;;;;;;;20.27;11.88;;;9.70;99.90;;;;;;5052232;28;20033;-85
2023/10/27 04:18:05;;;;;;;19.33;10.95;;;9.70;99.90;;;;;;5054945;28;20064;-85
2023/10/27 04:20:32;;;;;;;19.27;10.68;;;10.00;99.90;;;;;;5034776;28;20042;-84
2023/10/27 04:22:58;;;;;;;20.23;11.35;;;9.90;99.90;;;;;;5050875;28;20052;-84
2023/10/27 04:25:25;;;;;;;18.27;10.80;;;9.70;99.90;;;;;;5062138;28;20072;-84
2023/10/27 04:27:52;;;;;;;18.25;10.27;;;9.70;99.90;;;;;;5045010;28;20104;-84
2023/10/27 04:30:19;;;;;;;19.20;10.77;;;9.70;99.90;;;;;;5039173;28;20041;-84
2023/10/27 04:32:47;;;;;;;18.00;10.98;;;9.70;99.90;;;;;;5051603;28;20512;-85
2023/10/27 04:35:14;;;;;;;16.60;10.70;;;9.60;99.90;;;;;;5043835;28;20454;-84
2023/10/27 04:37:40;;;;;;;15.98;10.05;;;9.60;99.90;;;;;;5043470;28;20050;-84
2023/10/27 04:40:08;;;;;;;20.00;10.40;;;9.70;99.90;;;;;;5050031;28;20109;-84
2023/10/27 04:42:35;;;;;;;15.88;10.07;;;9.60;99.90;;;;;;5038032;28;20078;-85
2023/10/27 04:45:02;;;;;;;15.43;9.38;;;9.40;99.90;;;;;;5047384;28;20088;-84
2023/10/27 04:47:29;;;;;;;18.08;10.48;;;9.60;99.90;;;;;;5036210;28;20045;-84
2023/10/27 04:49:55;;;;;;;17.98;10.18;;;10.00;99.90;;;;;;5061578;28;20049;-84
2023/10/27 04:52:22;;;;;;;17.42;9.60;;;9.60;99.90;;;;;;5035064;28;20091;-84
2023/10/27 04:54:49;;;;;;;14.70;9.48;;;9.70;99.90;;;;;;5038286;28;20044;-84
2023/10/27 04:57:15;;;;;;;17.17;9.98;;;9.70;99.90;;;;;;5060292;28;20052;-84
2023/10/27 04:59:42;;;;;;;18.25;9.48;;;9.80;99.90;;;;;;5038215;28;20052;-84
2023/10/27 05:02:08;;;;;;;16.08;9.43;;;9.70;99.90;;;;;;5067297;28;20033;-84
2023/10/27 05:04:35;;;;;;;15.98;9.73;;;9.60;99.90;;;;;;5046270;28;20057;-84
2023/10/27 05:07:03;;;;;;;16.63;9.70;;;9.70;99.90;;;;;;5050919;28;20403;-84
2023/10/27 05:09:29;;;;;;;16.55;9.70;;;9.60;99.90;;;;;;5045164;28;20033;-84
2023/10/27 05:11:56;;;;;;;15.43;9.80;;;9.70;99.90;;;;;;5043741;28;20530;-84
2023/10/27 05:14:23;;;;;;;16.30;9.70;;;10.10;99.90;;;;;;5037604;28;20377;-84
2023/10/27 05:16:50;;;;;;;14.65;8.63;;;9.90;99.90;;;;;;5035608;28;20484;-84
2023/10/27 05:19:16;;;;;;;15.00;8.80;;;9.90;99.90;;;;;;5025391;28;20050;-84
2023/10/27 05:21:43;;;;;;;16.13;9.45;;;9.60;99.90;;;;;;5067344;28;20045;-84
2023/10/27 05:24:11;;;;;;;14.00;9.32;;;9.70;99.90;;;;;;5042359;28;20041;-83
2023/10/27 05:26:37;;;;;;;14.93;8.98;;;9.60;99.90;;;;;;5044670;28;20521;-84
2023/10/27 05:29:04;;;;;;;15.40;9.50;;;9.70;99.90;;;;;;5046724;28;20121;-84
2023/10/27 05:31:31;;;;;;;15.15;8.77;;;9.70;99.90;;;;;;5039275;28;20095;-84
2023/10/27 05:33:58;;;;;;;24.17;10.80;;;9.60;99.90;;;;;;5019002;28;20042;-84
2023/10/27 05:36:24;;;;;;;13.93;8.27;;;9.60;99.90;;;;;;5037060;28;20053;-84
2023/10/27 05:38:51;;;;;;;14.70;8.52;;;9.50;99.90;;;;;;5038348;28;20041;-84
2023/10/27 05:41:18;;;;;;;14.30;8.43;;;9.60;99.90;;;;;;5028309;28;20068;-84
2023/10/27 05:43:44;;;;;;;14.20;8.13;;;9.60;99.90;;;;;;5045068;28;20052;-83
2023/10/27 05:46:13;;;;;;;13.75;8.60;;;9.60;99.90;;;;;;5030687;28;20135;-83
2023/10/27 05:48:40;;;;;;;14.27;8.30;;;9.50;99.90;;;;;;5057694;28;20046;-86
2023/10/27 05:51:07;;;;;;;14.25;8.23;;;9.60;99.90;;;;;;5053343;28;20506;-83
2023/10/27 05:53:33;;;;;;;14.07;8.35;;;9.50;99.90;;;;;;5045221;28;20038;-86
2023/10/27 05:56:00;;;;;;;13.43;8.30;;;9.60;99.90;;;;;;5049708;28;20033;-87
2023/10/27 05:58:32;;;;;;;13.02;7.80;;;9.50;99.90;;;;;;5027339;28;20050;-86
2023/10/27 06:01:03;;;;;;;12.15;8.20;;;9.50;99.90;;;;;;5059723;28;20095;-86
2023/10/27 06:03:30;;;;;;;12.25;7.70;;;9.50;99.90;;;;;;5033120;28;20049;-86
2023/10/27 06:05:57;;;;;;;12.20;7.95;;;9.50;99.90;;;;;;5036813;28;20144;-87
2023/10/27 06:08:24;;;;;;;14.45;7.60;;;9.90;99.90;;;;;;5027214;28;20038;-86
2023/10/27 06:10:50;;;;;;;11.93;7.97;;;9.50;99.90;;;;;;5035290;28;20480;-87
2023/10/27 06:13:17;;;;;;;12.10;7.65;;;9.50;99.90;;;;;;5027493;28;20076;-87
2023/10/27 06:15:44;;;;;;;12.93;7.85;;;9.50;99.90;;;;;;5049498;28;20049;-87
2023/10/27 06:18:11;;;;;;;13.07;8.23;;;9.70;99.90;;;;;;5049521;28;20096;-87
2023/10/27 06:20:38;;;;;;;14.77;7.57;;;9.50;99.90;;;;;;5049207;28;20045;-87
2023/10/27 06:23:05;;;;;;;14.10;8.20;;;9.50;99.90;;;;;;5045577;28;20455;-86
2023/10/27 06:25:31;;;;;;;12.90;7.75;;;9.50;99.90;;;;;;5038747;28;20052;-87
2023/10/27 06:27:58;;;;;;;12.35;7.95;;;9.60;99.90;;;;;;5035362;28;20408;-87
2023/10/27 06:30:28;;;;;;;12.77;8.02;;;9.60;99.90;;;;;;5035927;28;20041;-87
2023/10/27 06:32:54;;;;;;;12.98;8.10;;;10.00;99.90;;;;;;5055211;28;20041;-87
2023/10/27 06:35:21;;;;;;;14.60;7.68;;;9.70;99.90;;;;;;5035083;28;20040;-86
2023/10/27 06:37:47;;;;;;;11.95;7.47;;;9.50;99.90;;;;;;5049168;28;20055;-84
2023/10/27 06:40:14;;;;;;;12.20;7.72;;;9.90;99.90;;;;;;5038327;28;20101;-84
2023/10/27 06:42:41;;;;;;;12.18;7.63;;;9.50;99.90;;;;;;5029015;28;20042;-85
2023/10/27 06:45:08;;;;;;;11.48;7.05;;;9.60;99.90;;;;;;5062103;28;20061;-85
2023/10/27 06:47:35;;;;;;;12.93;7.78;;;9.60;99.90;;;;;;5060648;28;20056;-85
2023/10/27 06:50:04;;;;;;;11.77;7.35;;;9.50;99.90;;;;;;5049240;28;20068;-85
2023/10/27 06:52:31;;;;;;;12.20;7.47;;;9.50;99.90;;;;;;5059698;28;20032;-85
2023/10/27 06:54:58;;;;;;;11.40;7.40;;;9.60;99.90;;;;;;5045480;28;20033;-85
2023/10/27 06:57:25;;;;;;;11.15;7.47;;;9.60;99.90;;;;;;5042498;28;20119;-85
2023/10/27 06:59:56;;;;;;;11.35;7.28;;;9.70;99.90;;;;;;5048881;28;20057;-85
2023/10/27 07:02:23;;;;;;;11.50;7.32;;;9.50;99.90;;;;;;5038453;28;20053;-85
2023/10/27 07:04:50;;;;;;;11.45;7.00;;;10.20;99.90;;;;;;5042617;28;20041;-85
2023/10/27 07:07:16;;;;;;;11.02;7.00;;;9.60;99.90;;;;;;5040342;28;20092;-85
2023/10/27 07:09:43;;;;;;;10.15;6.70;;;9.60;99.90;;;;;;5035371;28;20037;-84
2023/10/27 07:12:12;;;;;;;11.85;7.05;;;9.60;99.90;;;;;;5048246;28;20037;-85
2023/10/27 07:14:39;;;;;;;10.32;6.50;;;9.60;99.90;;;;;;5044239;28;20033;-85
2023/10/27 07:17:05;;;;;;;10.52;6.75;;;10.10;99.90;;;;;;5048615;28;20491;-85
2023/10/27 07:19:35;;;;;;;9.52;6.53;;;9.80;99.90;;;;;;5056369;28;20045;-85
2023/10/27 07:22:03;;;;;;;11.13;6.15;;;9.60;99.90;;;;;;5039443;28;20037;-86
2023/10/27 07:24:30;;;;;;;10.77;6.68;;;9.60;99.90;;;;;;5040885;28;20045;-86
2023/10/27 07:26:57;;;;;;;10.05;6.65;;;9.70;99.90;;;;;;5049070;28;20041;-86
2023/10/27 07:29:24;;;;;;;10.05;6.55;;;9.70;99.90;;;;;;5036124;28;20042;-86
2023/10/27 07:31:50;;;;;;;10.25;6.70;;;10.20;99.90;;;;;;5029056;28;20049;-86
2023/10/27 07:34:17;;;;;;;9.25;6.40;;;9.70;99.90;;;;;;5033727;28;20038;-86
2023/10/27 07:36:44;;;;;;;10.63;6.13;;;9.70;99.90;;;;;;5040141;28;20033;-86
2023/10/27 07:39:10;;;;;;;9.73;6.20;;;9.60;99.90;;;;;;5046713;28;20041;-86
2023/10/27 07:41:37;;;;;;;9.25;6.10;;;9.70;99.90;;;;;;5034888;28;20506;-87
2023/10/27 07:44:05;;;;;;;9.75;5.97;;;10.20;99.90;;;;;;5065483;28;20531;-86
2023/10/27 07:46:32;;;;;;;8.90;5.80;;;9.70;99.90;;;;;;5033003;28;20038;-86
2023/10/27 07:48:58;;;;;;;8.60;6.10;;;9.80;99.90;;;;;;5046565;28;20569;-87
2023/10/27 07:51:25;;;;;;;9.27;5.97;;;9.80;99.90;;;;;;5043040;28;20084;-86
2023/10/27 07:53:52;;;;;;;10.10;5.95;;;9.80;99.90;;;;;;5037776;28;20693;-86
2023/10/27 07:56:19;;;;;;;10.07;5.65;;;9.80;99.90;;;;;;5045375;28;20042;-87
2023/10/27 07:58:46;;;;;;;9.35;5.45;;;9.80;99.90;;;;;;5040514;28;20037;-87
2023/10/27 08:01:12;;;;;;;9.80;4.82;;;10.20;99.90;;;;;;5047158;28;20578;-84
2023/10/27 08:03:39;;;;;;;8.20;5.15;;;9.80;99.90;;;;;;5062536;28;20097;-84
2023/10/27 08:06:09;;;;;;;9.15;5.20;;;10.30;99.90;;;;;;5036273;28;20052;-86
2023/10/27 08:08:39;;;;;;;8.85;5.68;;;9.90;99.90;;;;;;5036981;28;20479;-86
2023/10/27 08:11:06;;;;;;;10.82;4.70;;;10.50;99.90;;;;;;5064565;28;20412;-86
2023/10/27 08:13:33;;;;;;;7.40;4.82;;;10.50;99.90;;;;;;5040298;28;20038;-86
2023/10/27 08:16:02;;;;;;;7.28;4.88;;;9.90;99.90;;;;;;5050039;28;20503;-87
2023/10/27 08:18:29;;;;;;;7.05;4.50;;;9.90;99.90;;;;;;5068950;28;20419;-86
2023/10/27 08:20:56;;;;;;;7.95;5.13;;;10.00;99.90;;;;;;5037031;28;20091;-85
2023/10/27 08:23:24;;;;;;;7.65;4.93;;;10.40;99.90;;;;;;5044151;28;20041;-87
2023/10/27 08:25:52;;;;;;;8.73;4.70;;;10.00;99.90;;;;;;5052622;28;20124;-87
2023/10/27 08:28:20;;;;;;;7.65;4.60;;;10.00;99.90;;;;;;5048794;28;20410;-87
2023/10/27 08:30:48;;;;;;;6.93;4.72;;;10.00;99.90;;;;;;5052258;28;20037;-87
2023/10/27 08:33:14;;;;;;;7.85;4.85;;;10.00;99.90;;;;;;5060824;28;20033;-87
2023/10/27 08:35:44;;;;;;;6.50;4.10;;;10.00;99.90;;;;;;5034523;28;20041;-88
2023/10/27 08:38:11;;;;;;;6.65;4.35;;;10.00;99.90;;;;;;5044832;28;20041;-87
2023/10/27 08:40:38;;;;;;;6.95;4.35;;;10.10;99.90;;;;;;5058597;28;20613;-87
2023/10/27 08:43:05;;;;;;;6.57;4.43;;;10.00;99.90;;;;;;5062270;28;20033;-87
2023/10/27 08:45:32;;;;;;;6.85;4.43;;;10.10;99.90;;;;;;5045798;28;20042;-87
2023/10/27 08:48:03;;;;;;;7.70;4.45;;;10.10;99.90;;;;;;5046841;28;20506;-85
2023/10/27 08:50:35;;;;;;;8.20;4.22;;;10.10;99.90;;;;;;5048476;28;20038;-84
2023/10/27 08:53:03;;;;;;;7.50;4.57;;;10.20;99.90;;;;;;5053220;28;20065;-83
2023/10/27 08:55:33;;;;;;;9.30;4.15;;;10.20;99.90;;;;;;5042388;28;20110;-83
2023/10/27 08:58:00;;;;;;;6.45;4.07;;;10.20;99.90;;;;;;5046103;28;20073;-83
2023/10/27 09:00:26;;;;;;;6.93;4.18;;;10.70;99.90;;;;;;5041137;28;20064;-84
2023/10/27 09:02:53;;;;;;;6.20;3.95;;;10.30;99.90;;;;;;5064693;28;20087;-85
2023/10/27 09:05:23;;;;;;;7.18;4.47;;;10.30;99.90;;;;;;5058044;28;20038;-84
2023/10/27 09:07:50;;;;;;;7.03;4.32;;;10.30;99.90;;;;;;5051115;28;20042;-84
2023/10/27 09:10:20;;;;;;;5.78;4.03;;;10.30;99.90;;;;;;5054303;28;20127;-83
2023/10/27 09:12:56;;;;;;;8.07;4.55;;;10.30;99.90;;;;;;5050954;28;20087;-83
2023/10/27 09:15:22;;;;;;;7.53;4.20;;;10.20;99.90;;;;;;5050866;28;20033;-83
2023/10/27 09:17:57;;;;;;;7.53;4.20;;;11.10;99.90;;;;;;5038068;28;20052;-83
2023/10/27 09:20:25;;;;;;;6.43;4.20;;;10.40;99.90;;;;;;5040546;28;20046;-84
2023/10/27 09:23:07;;;;;;;7.00;4.15;;;10.50;99.90;;;;;;5048884;28;20037;-84
2023/10/27 09:25:34;;;;;;;6.47;4.10;;;10.50;99.90;;;;;;5050906;28;20045;-83
2023/10/27 09:28:05;;;;;;;7.20;4.07;;;11.10;99.90;;;;;;5045445;28;20096;-89
2023/10/27 09:30:37;;;;;;;6.65;3.70;;;10.50;99.90;;;;;;5048299;28;20107;-88
2023/10/27 09:33:18;;;;;;;6.43;4.10;;;10.60;99.90;;;;;;5071311;28;20148;-91
2023/10/27 09:35:46;;;;;;;6.03;3.92;;;10.60;99.90;;;;;;5057929;28;20120;-90
2023/10/27 09:38:14;;;;;;;6.07;3.88;;;10.60;99.90;;;;;;5034940;28;20429;-89
2023/10/27 09:40:42;;;;;;;7.30;4.15;;;10.60;99.90;;;;;;5051522;28;20072;-91
2023/10/27 09:43:14;;;;;;;8.75;4.38;;;10.60;99.90;;;;;;5038860;28;20048;-88
2023/10/27 09:45:55;;;;;;;8.05;4.60;;;10.60;99.90;;;;;;5051464;28;20128;-89
2023/10/27 09:48:27;;;;;;;7.75;4.28;;;10.70;99.90;;;;;;5047569;28;20080;-90
2023/10/27 09:51:10;;;;;;;8.25;4.40;;;10.70;99.90;;;;;;5033040;28;20084;-91
2023/10/27 09:53:39;;;;;;;6.80;3.90;;;10.70;99.90;;;;;;5048549;28;20543;-90
2023/10/27 09:56:07;;;;;;;6.70;4.68;;;10.80;99.90;;;;;;5054597;28;20043;-88
2023/10/27 09:58:35;;;;;;;6.68;4.57;;;11.00;99.90;;;;;;5051367;28;20038;-88
2023/10/27 10:01:04;;;;;;;6.68;4.30;;;10.80;99.90;;;;;;5022946;28;20041;-88
2023/10/27 10:03:31;;;;;;;5.78;3.92;;;10.80;99.90;;;;;;5028429;28;20488;-88
2023/10/27 10:06:23;;;;;;;8.52;4.40;;;10.90;99.90;;;;;;5020951;28;20041;-88
2023/10/27 10:09:14;;;;;;;6.63;3.95;;;10.80;99.90;;;;;;5023328;28;20034;-89
2023/10/27 10:11:47;;;;;;;7.35;4.25;;;10.80;99.90;;;;;;5029159;28;20042;-89
2023/10/27 10:14:39;;;;;;;5.97;3.70;;;11.20;99.90;;;;;;5015076;28;20037;-88
2023/10/27 10:17:06;;;;;;;7.05;4.30;;;10.90;99.90;;;;;;5038911;28;20504;-87
2023/10/27 10:19:52;;;;;;;7.38;4.47;;;10.90;99.90;;;;;;5025169;28;20054;-87
2023/10/27 10:22:37;;;;;;;7.63;4.75;;;11.00;99.90;;;;;;5020854;28;20045;-87
2023/10/27 10:25:19;;;;;;;8.25;5.50;;;10.90;99.90;;;;;;5046740;28;20045;-87
2023/10/27 10:28:08;;;;;;;8.70;5.63;;;10.90;99.90;;;;;;5027981;28;20034;-87
2023/10/27 10:30:40;;;;;;;15.82;6.82;;;11.00;99.90;;;;;;5040701;28;20033;-87
2023/10/27 10:33:24;;;;;;;11.57;6.20;;;10.90;99.90;;;;;;5023164;28;20101;-87
2023/10/27 10:35:52;;;;;;;10.88;6.18;;;11.10;99.90;;;;;;5024769;28;20113;-87
2023/10/27 10:38:22;;;;;;;11.05;5.70;;;11.00;99.90;;;;;;5026777;28;20531;-87
2023/10/27 10:40:56;;;;;;;11.52;6.10;;;11.00;99.90;;;;;;5027337;28;20042;-86
2023/10/27 10:43:42;;;;;;;12.50;6.85;;;11.00;99.90;;;;;;5017101;28;20038;-87
2023/10/27 10:46:10;;;;;;;8.95;5.82;;;11.00;99.90;;;;;;5023360;28;20129;-86
2023/10/27 10:48:44;;;;;;;9.60;5.28;;;10.90;99.90;;;;;;5031209;28;20053;-86
2023/10/27 10:51:15;;;;;;;10.52;5.70;;;11.00;99.90;;;;;;5032874;28;20582;-87
2023/10/27 10:53:43;;;;;;;9.52;6.05;;;11.40;99.90;;;;;;5033828;28;20049;-86
2023/10/27 10:56:10;;;;;;;10.13;5.78;;;10.90;99.90;;;;;;5033439;28;20114;-87
2023/10/27 10:58:39;;;;;;;10.73;5.85;;;10.90;99.90;;;;;;5027341;28;20091;-86
2023/10/27 11:01:15;;;;;;;9.38;5.78;;;11.00;99.90;;;;;;5052788;28;20049;-87
2023/10/27 11:03:47;;;;;;;8.52;5.57;;;11.00;99.90;;;;;;5039389;28;20118;-87
2023/10/27 11:06:14;;;;;;;9.70;5.72;;;10.90;99.90;;;;;;5046502;28;20041;-87
2023/10/27 11:08:40;;;;;;;9.93;6.10;;;11.00;99.90;;;;;;5038706;28;20041;-87
2023/10/27 11:11:09;;;;;;;11.15;6.25;;;10.90;99.90;;;;;;5035345;28;20494;-87
2023/10/27 11:13:46;;;;;;;9.38;5.55;;;11.00;99.90;;;;;;5046683;28;20048;-88
2023/10/27 11:16:23;;;;;;;13.18;6.65;;;11.20;99.90;;;;;;5040219;28;20106;-87
2023/10/27 11:18:52;;;;;;;11.95;6.82;;;11.00;99.90;;;;;;5045749;28;20384;-87
2023/10/27 11:21:21;;;;;;;10.82;6.70;;;11.00;99.90;;;;;;5056029;28;20064;-86
2023/10/27 11:23:49;;;;;;;9.38;6.20;;;11.10;99.90;;;;;;5043776;28;20128;-87
2023/10/27 11:26:18;;;;;;;11.60;6.68;;;11.00;99.90;;;;;;5048397;28;20411;-86
2023/10/27 11:28:46;;;;;;;10.95;7.13;;;11.00;99.90;;;;;;5052008;28;20076;-86
2023/10/27 11:31:22;;;;;;;9.93;7.03;;;11.00;99.90;;;;;;5079397;28;20110;-86
2023/10/27 11:34:03;;;;;;;12.15;7.75;;;11.00;99.90;;;;;;5045762;28;20034;-86
2023/10/27 11:36:54;;;;;;;11.07;7.82;;;11.00;99.90;;;;;;5046413;28;20570;-85
2023/10/27 11:39:22;;;;;;;12.55;7.82;;;11.00;99.90;;;;;;5028942;28;20041;-86
2023/10/27 11:41:50;;;;;;;12.35;8.30;;;11.00;99.90;;;;;;5057089;28;20124;-86
2023/10/27 11:44:17;;;;;;;11.85;7.70;;;11.00;99.90;;;;;;5052254;28;20100;-86
2023/10/27 11:46:58;;;;;;;13.77;7.97;;;11.10;99.90;;;;;;5041085;28;20069;-86
2023/10/27 11:49:26;;;;;;;13.45;8.68;;;11.10;99.90;;;;;;5069691;28;20503;-86
2023/10/27 11:51:55;;;;;;;14.20;8.85;;;11.10;99.90;;;;;;5046930;28;20466;-85
2023/10/27 11:54:26;;;;;;;16.25;9.38;;;11.20;99.90;;;;;;5038727;28;20080;-86
2023/10/27 11:56:53;;;;;;;13.52;8.93;;;11.10;99.90;;;;;;5033978;28;20096;-86
2023/10/27 11:59:24;;;;;;;15.27;9.90;;;11.10;99.90;;;;;;5052017;28;20132;-86
2023/10/27 12:01:54;;;;;;;15.25;9.73;;;11.30;99.90;;;;;;5052968;28;20124;-87
2023/10/27 12:04:26;;;;;;;17.25;10.40;;;11.10;99.90;;;;;;5054935;28;20100;-87
2023/10/27 12:06:53;;;;;;;14.35;9.70;;;11.80;99.90;;;;;;5034038;28;20562;-87
2023/10/27 12:09:20;;;;;;;15.05;9.35;;;11.10;99.90;;;;;;5031291;28;20034;-86
2023/10/27 12:11:46;;;;;;;15.07;9.65;;;11.00;99.90;;;;;;5047904;28;20038;-87
2023/10/27 12:14:13;;;;;;;14.93;10.02;;;11.20;99.90;;;;;;5026343;28;20033;-86
2023/10/27 12:16:41;;;;;;;18.45;9.23;;;11.10;99.90;;;;;;5039578;28;20041;-86
2023/10/27 12:19:12;;;;;;;13.77;8.75;;;11.10;99.90;;;;;;5052307;28;20045;-86
2023/10/27 12:21:38;;;;;;;13.98;9.15;;;11.10;99.90;;;;;;5064948;28;20461;-86
2023/10/27 12:24:05;;;;;;;15.40;9.98;;;11.10;99.90;;;;;;5055475;28;20099;-86
2023/10/27 12:26:32;;;;;;;14.30;9.40;;;11.10;99.90;;;;;;5038185;28;20043;-85
2023/10/27 12:28:59;;;;;;;14.32;8.98;;;11.00;99.90;;;;;;5028904;28;20120;-86
2023/10/27 12:31:25;;;;;;;14.68;9.25;;;11.00;99.90;;;;;;5045102;28;20045;-85
2023/10/27 12:33:52;;;;;;;16.45;9.80;;;11.00;99.90;;;;;;5053272;28;20079;-86
2023/10/27 12:36:18;;;;;;;13.77;9.38;;;11.20;99.90;;;;;;5043853;28;20048;-85
2023/10/27 12:38:47;;;;;;;15.52;9.98;;;11.20;99.90;;;;;;5046051;28;20038;-85
2023/10/27 12:41:13;;;;;;;16.30;9.68;;;11.00;99.90;;;;;;5043032;28;20044;-85
2023/10/27 12:43:40;;;;;;;15.50;10.23;;;11.50;99.90;;;;;;5052554;28;20038;-85
2023/10/27 12:46:06;;;;;;;18.25;10.30;;;11.50;99.90;;;;;;5072344;28;20048;-85